Time;durP1;ratioP1;P1;durP2;ratioP2;P2;SDS_P1;SDS_P2;PMS_P1;PMS_P2;Temp;Humidity;BMP_temperature;BMP_pressure;BME280_temperature;BME280_humidity;BME280_pressure;Samples;Min_cycle;Max_cycle;Signal;HPM_P1;HPM_P2
2021/12/11 00:00:44;;;;;;;5.18;4.20;;;;;;;21.10;49.75;99326.69;20466316;28;102033;-68
2021/12/11 00:10:50;;;;;;;5.00;3.97;;;;;;;21.05;49.90;99344.72;20465780;28;98948;-69
2021/12/11 00:20:56;;;;;;;5.47;4.13;;;;;;;21.02;49.71;99353.72;20469734;28;100093;-69
2021/12/11 00:30:58;;;;;;;6.03;4.00;;;;;;;20.97;49.89;99371.75;20458653;28;99983;-68
2021/12/11 00:41:01;;;;;;;5.28;4.30;;;;;;;20.93;49.61;99383.50;20456192;28;98554;-68
2021/12/11 00:51:11;;;;;;;6.10;4.70;;;;;;;20.88;49.59;99410.25;20463074;28;101507;-68
2021/12/11 01:01:16;;;;;;;5.95;4.78;;;;;;;20.85;49.21;99430.75;20465542;28;105662;-68
2021/12/11 01:11:27;;;;;;;5.43;4.32;;;;;;;20.82;49.77;99444.19;20460058;28;101880;-68
2021/12/11 01:31:41;;;;;;;5.85;3.90;;;;;;;20.73;49.50;99433.53;20469019;28;101884;-68
2021/12/11 01:41:44;;;;;;;5.88;4.28;;;;;;;20.71;49.25;99440.69;20479034;28;100461;-68
2021/12/11 01:51:53;;;;;;;;;;;;;;;20.67;49.50;99436.69;20452633;28;100223;-67
2021/12/11 02:02:02;;;;;;;5.90;4.28;;;;;;;20.63;49.29;99453.72;20464385;28;101400;-68
2021/12/11 02:12:11;;;;;;;5.18;4.28;;;;;;;20.59;49.10;99444.44;20465081;28;98551;-67
2021/12/11 02:22:20;;;;;;;5.05;4.03;;;;;;;20.55;49.44;99445.69;20463296;28;100903;-68
2021/12/11 02:32:32;;;;;;;5.68;4.40;;;;;;;20.52;49.13;99430.16;20468295;28;99789;-68
2021/12/11 02:42:38;;;;;;;5.85;3.97;;;;;;;20.50;49.33;99432.13;20469010;28;99045;-68
2021/12/11 02:52:47;;;;;;;5.32;4.40;;;;;;;20.50;49.60;99421.59;20467385;28;98753;-68
2021/12/11 03:02:59;;;;;;;6.45;4.20;;;;;;;20.45;49.48;99425.47;20466275;28;99598;-68
2021/12/11 03:13:01;;;;;;;4.70;3.97;;;;;;;20.44;49.34;99405.38;20466070;28;102043;-68
2021/12/11 03:23:03;;;;;;;4.90;3.95;;;;;;;20.42;49.39;99438.03;20466932;28;101485;-68
2021/12/11 03:33:09;;;;;;;4.50;4.03;;;;;;;20.38;49.13;99452.44;20477540;28;101386;-68
2021/12/11 03:43:15;;;;;;;4.63;3.85;;;;;;;20.33;48.83;99478.31;20452772;28;102028;-69
2021/12/11 03:53:18;;;;;;;5.28;4.30;;;;;;;20.33;49.35;99496.72;20479720;28;97792;-68
2021/12/11 04:03:23;;;;;;;5.18;4.03;;;;;;;20.29;49.11;99485.66;20473055;28;100324;-68
2021/12/11 04:13:24;;;;;;;4.88;3.75;;;;;;;20.27;49.35;99472.63;20472353;28;99672;-68
2021/12/11 04:23:25;;;;;;;4.85;4.07;;;;;;;20.24;48.74;99498.38;20476424;28;100065;-69
2021/12/11 04:33:26;;;;;;;5.20;3.90;;;;;;;20.22;49.15;99497.66;20473325;28;101126;-67
2021/12/11 04:43:29;;;;;;;4.75;3.75;;;;;;;20.20;48.95;99487.28;20475009;28;101430;-69
2021/12/11 05:14:04;;;;;;;4.50;3.65;;;;;;;20.24;48.78;99530.72;20471124;28;97824;-69
2021/12/11 05:24:06;;;;;;;7.05;5.40;;;;;;;20.40;48.62;99535.47;20471341;28;98699;-69
2021/12/11 05:34:07;;;;;;;6.90;5.22;;;;;;;20.52;48.45;99543.25;20467396;28;100846;-69
2021/12/11 05:44:09;;;;;;;7.07;5.50;;;;;;;20.67;48.97;99549.81;20464032;28;98685;-70
2021/12/11 05:54:15;;;;;;;11.02;5.78;;;;;;;20.81;48.92;99564.38;20464519;28;100643;-69
2021/12/11 06:04:24;;;;;;;10.15;6.00;;;;;;;20.89;49.27;99579.50;20467519;28;100718;-68
2021/12/11 06:14:26;;;;;;;11.63;6.15;;;;;;;20.96;48.74;99599.03;20448716;28;101109;-69
2021/12/11 06:24:28;;;;;;;8.60;5.60;;;;;;;20.93;48.03;99626.47;20462318;28;103392;-69
2021/12/11 06:34:31;;;;;;;8.97;6.67;;;;;;;20.96;48.37;99662.22;20457248;28;99087;-73
2021/12/11 06:44:33;;;;;;;13.88;7.35;;;;;;;20.93;46.16;99676.47;20464044;28;97949;-71
2021/12/11 06:54:34;;;;;;;13.40;9.70;;;;;;;21.03;46.89;99689.66;20465145;28;98478;-78
2021/12/11 07:04:35;;;;;;;11.38;6.57;;;;;;;21.14;48.04;99722.09;20476694;28;100475;-72
2021/12/11 07:14:35;;;;;;;14.05;9.68;;;;;;;21.17;48.20;99748.97;20464716;28;101155;-77
2021/12/11 07:24:57;;;;;;;9.32;6.78;;;;;;;21.22;49.41;99786.25;20463734;28;99722;-78
2021/12/11 07:34:59;;;;;;;11.50;7.13;;;;;;;21.17;47.23;99793.75;20463656;28;98265;-76
2021/12/11 07:45:00;;;;;;;17.10;10.27;;;;;;;21.23;47.87;99805.53;20469850;28;98786;-78
2021/12/11 07:55:03;;;;;;;11.60;7.13;;;;;;;21.28;48.14;99803.34;20471724;28;98862;-78
2021/12/11 08:05:04;;;;;;;11.05;7.25;;;;;;;21.38;48.66;99798.91;20459718;28;100977;-79
2021/12/11 08:15:08;;;;;;;17.13;10.13;;;;;;;21.36;48.33;99806.13;20465302;28;99994;-79
2021/12/11 08:25:10;;;;;;;16.65;10.27;;;;;;;21.36;47.94;99819.31;20485138;28;99450;-80
2021/12/11 08:35:12;;;;;;;15.75;11.30;;;;;;;21.34;48.02;99821.22;20491993;28;101126;-78
2021/12/11 08:45:21;;;;;;;15.45;10.68;;;;;;;21.33;47.69;99843.25;20481166;28;98554;-77
2021/12/11 08:55:30;;;;;;;12.80;8.63;;;;;;;21.33;47.61;99832.72;20488148;28;98079;-79
2021/12/11 09:05:55;;;;;;;12.63;8.23;;;;;;;21.31;47.88;99850.44;20499552;28;99158;-78
2021/12/11 09:16:08;;;;;;;11.63;6.88;;;;;;;21.33;47.32;99861.69;20499190;28;101992;-78
2021/12/11 09:26:23;;;;;;;9.30;6.82;;;;;;;21.28;47.56;99861.28;20511761;28;97697;-76
2021/12/11 09:36:32;;;;;;;8.27;6.45;;;;;;;21.24;47.67;99879.13;20491500;28;98666;-78
2021/12/11 09:46:38;;;;;;;7.85;6.25;;;;;;;21.21;47.49;99897.00;20466549;28;101031;-77
2021/12/11 09:56:45;;;;;;;7.60;6.10;;;;;;;21.19;47.31;99893.66;20464578;28;98761;-76
2021/12/11 10:17:15;;;;;;;8.18;6.10;;;;;;;21.13;47.26;99875.75;20477267;28;101156;-78
2021/12/11 10:27:23;;;;;;;9.73;6.18;;;;;;;21.13;46.88;99870.47;20474598;28;99313;-78
2021/12/11 10:37:33;;;;;;;6.55;5.28;;;;;;;21.06;47.40;99889.44;20492238;28;98891;-79
2021/12/11 10:47:42;;;;;;;11.10;5.88;;;;;;;21.04;46.36;99893.16;20494057;28;98704;-80
2021/12/11 10:57:43;;;;;;;9.65;5.70;;;;;;;21.02;46.96;99885.41;20501146;28;98007;-79
2021/12/11 11:07:45;;;;;;;8.55;5.13;;;;;;;21.02;46.01;99864.34;20505360;28;100032;-80
2021/12/11 11:17:45;;;;;;;10.23;5.65;;;;;;;21.04;46.06;99861.56;20482875;28;100896;-77
2021/12/11 11:27:52;;;;;;;10.30;5.68;;;;;;;21.03;46.30;99857.25;20499715;28;98857;-78
2021/12/11 11:37:56;;;;;;;10.48;5.40;;;;;;;21.06;46.37;99860.47;20470523;28;98979;-77
2021/12/11 11:48:06;;;;;;;10.63;6.22;;;;;;;20.92;44.74;99873.97;20471817;28;99539;-78
2021/12/11 11:58:08;;;;;;;9.30;5.70;;;;;;;20.98;45.13;99894.50;20497582;28;98275;-77
2021/12/11 12:08:11;;;;;;;8.93;5.67;;;;;;;20.97;45.65;99899.91;20491165;28;101581;-77
2021/12/11 12:18:16;;;;;;;10.05;5.22;;;;;;;20.98;45.70;99910.28;20478348;28;98597;-78
2021/12/11 12:28:17;;;;;;;9.05;4.93;;;;;;;20.99;45.54;99919.84;20482738;28;99043;-78
2021/12/11 12:38:23;;;;;;;13.85;5.35;;;;;;;21.09;45.94;99919.91;20473501;28;98393;-79
2021/12/11 12:48:24;;;;;;;12.13;6.00;;;;;;;21.09;45.58;99904.13;20460016;28;101198;-79
2021/12/11 12:58:54;;;;;;;14.15;5.45;;;;;;;21.17;46.09;99904.31;20478236;28;100022;-79
2021/12/11 13:09:11;;;;;;;12.38;5.45;;;;;;;21.18;46.78;99898.09;20472322;28;100911;-78
2021/12/11 13:19:21;;;;;;;8.63;5.55;;;;;;;21.13;46.92;99896.81;20483989;28;100934;-79
2021/12/11 13:29:26;;;;;;;12.07;5.15;;;;;;;21.06;47.06;99897.31;20476323;28;102066;-79
2021/12/11 13:39:30;;;;;;;7.78;5.18;;;;;;;21.06;47.20;99915.75;20479451;28;98552;-78
2021/12/11 13:49:30;;;;;;;10.15;5.20;;;;;;;21.05;47.15;99931.69;20480058;28;102848;-80
2021/12/11 13:59:32;;;;;;;10.45;5.43;;;;;;;21.05;47.13;99927.25;20470241;28;99130;-74
2021/12/11 14:09:35;;;;;;;8.07;5.60;;;;;;;21.05;47.05;99919.34;20468779;28;98843;-75
2021/12/11 14:19:37;;;;;;;11.40;4.80;;;;;;;21.18;46.77;99942.84;20470917;28;98604;-78
2021/12/11 14:29:39;;;;;;;11.52;5.43;;;;;;;21.33;48.17;99966.22;20467597;28;101334;-78
2021/12/11 14:39:47;;;;;;;15.43;5.93;;;;;;;21.38;49.03;99977.19;20471711;28;99653;-80
2021/12/11 14:49:52;;;;;;;8.32;5.53;;;;;;;21.39;49.36;99990.22;20434358;28;103038;-78
2021/12/11 14:59:58;;;;;;;9.18;5.22;;;;;;;21.34;48.63;100010.84;20432369;28;105593;-76
2021/12/11 15:10:01;;;;;;;11.10;6.05;;;;;;;21.00;44.72;100012.84;20461175;28;98511;-78
2021/12/11 15:20:09;;;;;;;;;;;;;;;21.08;46.28;100008.59;20478046;28;100487;-78
2021/12/11 15:30:18;;;;;;;8.85;5.95;;;;;;;21.10;46.84;100019.00;20484850;28;100199;-79
2021/12/11 15:40:23;;;;;;;9.02;5.10;;;;;;;21.06;46.52;100010.53;20491253;28;102473;-79
2021/12/11 15:50:28;;;;;;;8.57;5.35;;;;;;;21.05;46.31;100014.09;20486359;28;99051;-79
2021/12/11 16:00:41;;;;;;;8.65;5.55;;;;;;;21.10;46.21;100019.00;20482091;28;99291;-80
2021/12/11 16:10:42;;;;;;;;;;;;;;;21.10;46.29;100025.13;20485995;28;102002;-79
2021/12/11 16:20:48;;;;;;;8.43;5.80;;;;;;;21.12;46.33;100061.84;20487917;28;99238;-80
2021/12/11 16:30:54;;;;;;;9.10;5.80;;;;;;;21.12;46.26;100075.00;20488565;28;97626;-79
2021/12/11 16:41:18;;;;;;;10.93;6.65;;;;;;;21.11;46.04;100094.38;20485126;28;100429;-78
2021/12/11 16:51:44;;;;;;;7.82;5.32;;;;;;;21.11;45.90;100097.03;20482641;28;98521;-79
2021/12/11 17:01:48;;;;;;;9.13;6.65;;;;;;;21.11;45.95;100102.28;20436212;28;100147;-79
2021/12/11 17:11:50;;;;;;;8.27;5.88;;;;;;;21.13;45.66;100116.16;20467500;28;98185;-79
2021/12/11 17:21:50;;;;;;;9.30;6.60;;;;;;;21.10;45.92;100109.38;20472041;28;100970;-80
2021/12/11 17:31:51;;;;;;;9.48;6.55;;;;;;;21.11;46.00;100116.28;20477194;28;98290;-79
2021/12/11 17:41:56;;;;;;;8.15;6.05;;;;;;;21.11;45.67;100100.47;20475664;28;99023;-79
2021/12/11 17:51:59;;;;;;;8.18;6.13;;;;;;;21.13;45.40;100097.75;20469264;28;99442;-79
2021/12/11 18:02:22;;;;;;;8.37;6.40;;;;;;;21.13;45.54;100128.47;20471794;28;98827;-79
2021/12/11 18:12:37;;;;;;;9.73;6.82;;;;;;;21.17;45.22;100150.97;20468934;28;100595;-78
2021/12/11 18:22:39;;;;;;;10.10;6.18;;;;;;;21.16;45.43;100154.56;20465168;28;100934;-80
2021/12/11 18:32:40;;;;;;;12.80;7.03;;;;;;;21.19;45.29;100165.69;20464368;28;98703;-78
2021/12/11 18:42:41;;;;;;;11.05;6.90;;;;;;;21.15;45.45;100179.22;20459222;28;100387;-78
2021/12/11 18:52:44;;;;;;;9.38;6.13;;;;;;;21.10;45.69;100187.50;20464789;28;101825;-80
2021/12/11 19:02:49;;;;;;;10.55;5.93;;;;;;;21.09;46.79;100184.03;20467356;28;98678;-81
2021/12/11 19:12:51;;;;;;;15.80;6.38;;;;;;;21.11;46.32;100168.09;20459508;28;97788;-80
2021/12/11 19:22:55;;;;;;;14.00;7.13;;;;;;;21.14;46.18;100180.19;20476039;28;102137;-82
2021/12/11 19:32:56;;;;;;;12.02;6.38;;;;;;;21.10;48.83;100198.03;20469791;28;101960;-80
2021/12/11 19:42:58;;;;;;;11.38;6.75;;;;;;;21.07;48.74;100224.59;20477124;28;99471;-81
2021/12/11 19:53:00;;;;;;;11.40;6.27;;;;;;;21.01;48.46;100228.56;20475165;28;102034;-81
2021/12/11 20:03:03;;;;;;;9.98;6.28;;;;;;;21.04;47.96;100223.03;20497828;28;100415;-82
2021/12/11 20:13:10;;;;;;;10.88;6.25;;;;;;;21.06;47.90;100242.19;20487494;28;98439;-79
2021/12/11 20:23:13;;;;;;;9.57;5.82;;;;;;;21.06;48.00;100217.66;20493488;28;98784;-80
2021/12/11 20:33:14;;;;;;;9.30;5.70;;;;;;;21.04;48.02;100212.50;20473190;28;102226;-80
2021/12/11 20:43:16;;;;;;;7.95;5.47;;;;;;;21.03;48.16;100225.78;20477482;28;99099;-80
2021/12/11 20:53:21;;;;;;;9.98;6.00;;;;;;;20.99;48.37;100221.75;20502641;28;102719;-80
2021/12/11 21:03:26;;;;;;;11.88;5.13;;;;;;;20.95;48.60;100207.97;20491073;28;98807;-80
2021/12/11 21:13:37;;;;;;;8.27;5.68;;;;;;;20.92;49.16;100205.59;20491927;28;102494;-78
2021/12/11 21:23:43;;;;;;;8.77;5.47;;;;;;;20.90;49.13;100197.81;20486119;28;101962;-80
2021/12/11 21:33:49;;;;;;;9.65;5.70;;;;;;;20.88;48.87;100183.94;20478415;28;97472;-80
2021/12/11 21:43:50;;;;;;;8.70;5.50;;;;;;;20.86;48.83;100172.72;20474569;28;98042;-80
2021/12/11 21:53:54;;;;;;;8.68;5.43;;;;;;;20.82;48.70;100173.06;20485747;28;100073;-80
2021/12/11 22:03:59;;;;;;;7.25;5.63;;;;;;;20.78;48.30;100180.38;20490700;28;97565;-80
2021/12/11 22:14:03;;;;;;;10.43;6.00;;;;;;;20.75;48.45;100191.13;20496243;28;98611;-80
2021/12/11 22:24:07;;;;;;;9.18;6.28;;;;;;;20.71;48.39;100189.66;20492322;28;101627;-81
2021/12/11 22:34:11;;;;;;;9.35;6.93;;;;;;;20.69;48.46;100194.19;20490880;28;100925;-80
2021/12/11 22:44:23;;;;;;;10.70;7.47;;;;;;;20.66;48.63;100210.25;20492612;28;98118;-80
2021/12/11 22:54:37;;;;;;;9.25;6.70;;;;;;;20.62;48.35;100199.94;20477073;28;101277;-80
2021/12/11 23:04:43;;;;;;;7.43;6.22;;;;;;;20.57;48.33;100178.44;20469928;28;98436;-80
2021/12/11 23:14:50;;;;;;;8.52;5.80;;;;;;;20.54;48.42;100165.50;20471339;28;99245;-80
2021/12/11 23:24:56;;;;;;;10.52;6.20;;;;;;;20.55;48.92;100161.09;20462790;28;100315;-80
2021/12/11 23:35:00;;;;;;;7.93;6.00;;;;;;;20.51;49.26;100157.00;20471669;28;97603;-79
2021/12/11 23:45:28;;;;;;;8.32;5.80;;;;;;;20.46;49.02;100163.47;20478372;28;99804;-80
2021/12/11 23:55:47;;;;;;;9.52;6.03;;;;;;;20.43;48.89;100170.78;20468871;28;101604;-78
